Terminal Aerodrome Forecast
Issued by NWS

Home | Current Version | Previous Version | Text Only | Print | Product List | Glossary On
Versions: 1 2 3 4 5 6 7 8 9 10 11 12 13 14 15 16 17 18 19
626
FTUS46 KPDT 122339
TAFRDM
TAF
KRDM 122339Z 1300/1324 30011G16KT P6SM VCSH BKN080
     FM130300 VRB05KT P6SM BKN070
     FM131500 17005KT P6SM SCT100 SCT200
     FM132100 22009KT P6SM BKN090=

USA.gov is the U.S. government's official web portal to all federal, state and local government web resources and services.